Ryan Gakpo

Olheiro-Chefe - Excelsior
3 Fev 2028
Quinta-feira
Processo

Personalidade

Adaptabilidade (17) Ambição (10) Controvérsia (12) Lealdade (6) Pressão (3) Profissionalismo (9) Espírito Esportivo (16) Temperamento (14)

Perfil

Estilo de Treinamento Democrático
Licença Continental B
Determinação 3
Gestão de Pessoas 7
Motivação 8
Disciplina 10
Satisfação no Trabalho
100%
Fadiga
0%
Função Olheiro-Chefe
Salário 61.9K p/s
Contrato 14.03.2028

Desempenho

Comportamento Bom
Eficácia do Treinamento
36%
Desenvolvimento do Jogador
20%
Prevenção de Lesões
35%
Implementação Tática
45%

Eventos Recentes

Negociação de contrato iniciada agora
Participou de uma reunião de recrutamento agora
Participou de uma reunião de recrutamento agora
Recomendou um alvo de transferência agora
Recomendou um alvo de transferência agora
Recomendou um alvo de transferência agora
Negociação de contrato iniciada 7d atrás
Negociação de contrato iniciada 7d atrás

Monitorando agora

68
Jogador Clube Status Habilidade Confiança Observado Última observação Último voto
Maxwell Rodrigues Willem II Ativo 79 / 93 44% 1 17.01.2028 -
Santiago Hezze Chaves Negociando 132 / 133 62% 1 01.01.2028 Aprovar
Dion Beljo Standard Liege Negociando 131 / 132 66% 1 01.06.2027 Aprovar
Abu Kamara Portsmouth Ativo 124 / 118 40% 1 19.01.2027 -
Jordan van der Gaag Leiria Negociando 110 / 110 66% 1 01.01.2027 Aprovar
Ilias Sebaoui Sint-Truiden Ativo 141 / 132 40% 5 30.12.2026 -
Othmane Maamma Watford Ativo 138 / 121 40% 1 30.12.2026 -
Jakob Napoleon Romsaas Charleroi Ativo 116 / 115 40% 4 29.12.2026 -
Suleiman Camara Slovan Bratislava Ativo 113 / 117 40% 1 29.12.2026 -
Tommy St. Jago KV Mechelen Ativo 132 / 128 40% 4 28.12.2026 -
Nayel Mehssatou KV Kortrijk Ativo 103 / 114 40% 4 27.12.2026 -
Myron van Brederode KV Mechelen Ativo 107 / 121 40% 3 22.12.2026 -
Ilyes Najim Waasland-Beveren Ativo 125 / 114 40% 3 21.12.2026 -
Ramiro Sordo Santos Laguna Ativo 144 / 122 40% 1 21.12.2026 -
Cisse Sandra Westerlo Ativo 114 / 124 40% 1 19.12.2026 -
Carlos Vicente Birmingham Ativo 139 / 134 40% 2 18.12.2026 -
Dries Chadli Mouscron Ativo 109 / 107 40% 1 18.12.2026 -
Chris Lokesa Waasland-Beveren Ativo 127 / 121 40% 1 16.12.2026 -
Bart van Rooij Twente Ativo 123 / 142 40% 1 16.12.2026 Mais informações
Christian Tielemans KV Oostende Ativo 152 / 137 40% 4 15.12.2026 -
Robert-Jan Vanwesemael Sint-Truiden Ativo 116 / 111 40% 2 14.12.2026 -
Mandla Erasmus SuperSport United Ativo 140 / 115 40% 1 11.12.2026 -
Williams Manyama SuperSport United Ativo 134 / 111 40% 1 11.12.2026 -
Omar El Hilali Espanyol Ativo 138 / 145 40% 2 10.12.2026 -
Pol Lozano Espanyol Ativo 136 / 130 40% 1 10.12.2026 -
Ibrahim Karamoko Standard Liege Ativo 120 / 117 40% 1 09.12.2026 -
Karim Adeyemi Barcelona Ativo 160 / 157 40% 1 08.12.2026 -
Antoine Colassin Charleroi Ativo 119 / 111 40% 5 07.12.2026 -
Sorba Thomas Stoke City Ativo 143 / 121 40% 2 06.12.2026 -
Thomas Claes Zulte Waregem Ativo 120 / 115 40% 2 06.12.2026 -
Alejandro Balde Barcelona Ativo 153 / 157 40% 1 06.12.2026 -
Zinho Vanaken KV Oostende Ativo 118 / 124 40% 1 06.12.2026 -
Jack Rudoni Coventry City Ativo 145 / 132 40% 1 04.12.2026 -
Léandre Kuavita Waasland-Beveren Ativo 121 / 120 40% 3 30.11.2026 -
Reda Khadra Qarabag Ativo 124 / 130 40% 1 28.11.2026 -
Isa Sakamoto Westerlo Ativo 103 / 114 40% 2 27.11.2026 -
El Hadji Malick Diouf Brentford Ativo 136 / 137 40% 1 27.11.2026 -
Alessandro Buongiorno Sassuolo Ativo 142 / 160 40% 1 26.11.2026 -
Marcus Linday Heerenveen Ativo 104 / 126 40% 1 26.11.2026 -
Yoann Cathline Utrecht Ativo 142 / 141 40% 1 24.11.2026 -
Derry Murkin Derby County Ativo 122 / 126 40% 1 22.11.2026 -
Lukáš Červ Viktoria Plzen Ativo 119 / 129 40% 1 22.11.2026 -
Sieben Dewaele Waasland-Beveren Ativo 113 / 114 40% 1 20.11.2026 -
Taiga Hata Sint-Truiden Ativo 109 / 116 40% 2 18.11.2026 -
Thibaud Verlinden OH Leuven Ativo 115 / 122 40% 4 17.11.2026 -
Alan Lescano Argentinos Juniors Ativo 142 / 118 40% 2 17.11.2026 -
César Ibáñez Huracán Ativo 120 / 114 40% 1 17.11.2026 -
Oscar Gloukh Ajax Ativo 150 / 128 40% 1 13.11.2026 -
Kwadwo Baah Watford Ativo 126 / 118 40% 1 11.11.2026 -
Derensili Sanches Fernandes Huddersfield Town Ativo 112 / 129 40% 2 04.11.2026 -
Abdelkahar Kadri KAA Gent Ativo 137 / 132 40% 2 03.11.2026 -
Hugo Vetlesen Club Brugge Ativo 122 / 121 40% 1 01.11.2026 -
Ramiro Ruiz Rodríguez Atlético Tucumán Ativo 138 / 118 40% 2 30.10.2026 -
Georginio Rutter Brighton Ativo 155 / 154 40% 1 29.10.2026 -
Rémi Lemoine Chamois Niortais Ativo 143 / 156 40% 1 29.10.2026 -
Mayckel Lahdo Malmo FF Ativo 129 / 130 40% 1 25.10.2026 -
Bill Antonio KV Mechelen Ativo 124 / 120 40% 1 23.10.2026 -
Jan Virgili Club Brugge Ativo 127 / 140 40% 1 22.10.2026 -
Mamadou Diakhon Club Brugge Ativo 117 / 133 40% 1 21.10.2026 -
Iván Angulo Orlando City Ativo 132 / 121 40% 1 13.10.2026 -
Kevin Amaro Racing Genk Ativo 135 / 117 40% 1 12.10.2026 -
Dara O'Shea Ipswich Town Ativo 125 / 142 40% 1 12.10.2026 -
Stanley Mills Oxford United Ativo 126 / 126 40% 1 12.10.2026 -
Thomas Van Den Keybus Westerlo Ativo 120 / 112 40% 1 06.10.2026 -
Alexander Díaz Deportivo Riestra Ativo 128 / 104 40% 1 05.10.2026 -
Ruben van Bommel Ferencvaros Ativo 119 / 137 40% 1 10.09.2026 -
Noni Madueke Arsenal Ativo 163 / 156 40% 1 09.09.2026 -
Enrique Lofolomo Zulte Waregem Ativo 113 / 104 40% 1 08.09.2026 -